ADDS METAR Data INFO
IDs: Format: Raw Decoded Include TAF

Data at: 2113 UTC 19 Jul 2018

KMRY 192054Z 23010KT 10SM CLR 22/13 A2995 RMK AO2 SLP151 T02170128 58010
KMRY 191954Z 31006KT 10SM CLR 22/14 A2996 RMK AO2 SLP155 T02220139
KMRY 191854Z 32006KT 10SM CLR 19/13 A2997 RMK AO2 SLP160 T01890133
KMRY 191754Z 32004KT 10SM CLR 18/13 A2998 RMK AO2 SLP162 T01830133 10183 20133 56003
KMRY 191654Z VRB03KT 10SM SCT008 17/13 A2998 RMK AO2 SLP163 T01720133
KMRY 191652Z 00000KT 10SM SCT008 17/13 A2998 RMK AO2
KMRY 191554Z 00000KT 10SM OVC006 15/13 A2998 RMK AO2 SLP165 T01500128
KMRY 191522Z 04003KT 6SM BR OVC006 14/13 A2998 RMK AO2 T01440133
KMRY 191454Z 01004KT 8SM OVC003 14/13 A2998 RMK AO2 SLP164 T01440133 51003
KMRY 191420Z 00000KT 2 1/2SM BR OVC003 14/13 A2998 RMK AO2 T01390128
KMRY 191354Z 00000KT 9SM OVC004 13/12 A2998 RMK AO2 SLP164 T01330122
KMRY 191322Z 00000KT 6SM BR OVC004 13/12 A2997 RMK AO2 CIG 002V006 T01330122
KMRY 191254Z 00000KT 10SM OVC006 13/12 A2997 RMK AO2 SLP161 T01330117
KMRY 191220Z AUTO 00000KT 10SM OVC005 13/12 A2997 RMK AO2 T01330122
KMRY 191154Z AUTO 00000KT 10SM OVC004 13/12 A2997 RMK AO2 SLP160 T01330122 10139 20128 50000
KMRY 191054Z AUTO 00000KT 8SM OVC003 13/12 A2997 RMK AO2 SLP161 T01330122
KMRY 190954Z AUTO 19004KT 9SM OVC004 13/12 A2997 RMK AO2 SLP160 T01330122
KMRY 190854Z AUTO 15003KT 10SM OVC004 13/12 A2997 RMK AO2 CIG 001V005 SLP159 T01330122 57005
KMRY 190754Z AUTO 15003KT 6SM BR OVC002 13/12 A2997 RMK AO2 SLP160 T01330122 402060122
KMRY 190654Z AUTO 16004KT 10SM OVC003 14/13 A2998 RMK AO2 SLP163 T01390128
KMRY 190554Z AUTO 19003KT 10SM OVC003 14/13 A2998 RMK AO2 SLP165 T01390133 10194 20139 50003
KMRY 190454Z AUTO 29003KT 7SM OVC003 14/13 A2998 RMK AO2 SLP165 T01390133
KMRY 190354Z AUTO 24005KT 9SM OVC003 14/13 A2998 RMK AO2 SLP162 T01440128
KMRY 190254Z 23007KT 10SM OVC004 15/13 A2997 RMK AO2 SLP162 T01500128 55003
KMRY 190246Z 22007KT 10SM OVC004 15/13 A2998 RMK AO2 T01500133
KMRY 190215Z 26007KT 10SM BKN006 16/13 A2997 RMK AO2 T01560128
KMRY 190154Z 23009KT 10SM SCT007 17/13 A2997 RMK AO2 SLP160 T01670133
KMRY 190054Z 26008KT 10SM CLR 18/13 A2998 RMK AO2 SLP162 T01830133
KMRY 182354Z 27007KT 10SM FEW007 19/13 A2998 RMK AO2 SLP164 T01890133 10206 20178 58009
KMRY 182254Z 22009KT 10SM CLR 19/13 A2999 RMK AO2 SLP167 T01940133
KMRY 182154Z 27007KT 10SM FEW007 20/13 A3000 RMK AO2 SLP171 T02000133
KMRY 182054Z 27009KT 10SM CLR 20/13 A3001 RMK AO2 SLP173 T02000133 58008
KMRY 181954Z 22010KT 10SM CLR 20/13 A3003 RMK AO2 SLP178 T02000128
KMRY 181854Z 26009KT 10SM CLR 18/13 A3003 RMK AO2 SLP182 T01830133
KMRY 181754Z VRB05KT 10SM SCT007 18/13 A3004 RMK AO2 SLP182 T01780133 10178 20122 51003
KMRY 181654Z 28006KT 10SM OVC008 16/13 A3003 RMK AO2 SLP181 T01610128 $
KMRY 181554Z 00000KT 10SM OVC006 14/12 A3003 RMK AO2 SLP182 T01440122 $
KMRY 181536Z 00000KT 10SM OVC005 14/12 A3003 RMK AO2 T01390122 $
KMRY 181454Z 22005KT 7SM OVC004 13/12 A3003 RMK AO2 SLP180 T01280117 53012 $
KMRY 181354Z 23006KT 7SM OVC003 12/12 A3002 RMK AO2 SLP177 T01220117 $
KMRY 181254Z AUTO 24005KT 4SM BR OVC002 12/12 A2999 RMK AO2 SLP168 T01220117 $
KMRY 181154Z AUTO 08003KT 3SM BR OVC002 12/12 A2999 RMK AO2 SLP168 T01220122 10139 20122 56004 $
KMRY 181054Z AUTO 16004KT 7SM OVC002 13/12 A2999 RMK AO2 SLP168 T01280122 $
KMRY 180954Z AUTO 20003KT 5SM BR OVC002 13/12 A2999 RMK AO2 SLP169 T01280122 $